Time;durP1;ratioP1;P1;durP2;ratioP2;P2;SDS_P1;SDS_P2;PMS_P1;PMS_P2;Temp;Humidity;BMP_temperature;BMP_pressure;BME280_temperature;BME280_humidity;BME280_pressure;Samples;Min_cycle;Max_cycle;Signal;HPM_P1;HPM_P2
2021/11/25 10:18:04;;;;;;;0.30;0.30;;;;;;;-8.49;67.44;97475.22;5091149;28;20063;-68
2021/11/25 10:20:32;;;;;;;0.47;0.47;;;;;;;-8.46;67.20;97480.22;5092319;28;20044;-69
2021/11/25 10:23:01;;;;;;;0.40;0.40;;;;;;;-8.39;67.12;97474.28;5092711;28;20043;-67
2021/11/25 10:25:50;;;;;;;0.30;0.30;;;;;;;-8.38;67.04;97479.44;5092337;28;20086;-68
2021/11/25 10:28:25;;;;;;;0.47;0.47;;;;;;;-8.49;67.53;97472.53;5092712;28;20032;-68
2021/11/25 10:31:04;;;;;;;0.60;0.60;;;;;;;-8.47;67.49;97475.88;5092579;28;20522;-68
2021/11/25 10:33:59;;;;;;;0.45;0.45;;;;;;;-8.50;67.74;97475.34;5091839;28;20074;-67
2021/11/25 10:41:52;;;;;;;0.40;0.40;;;;;;;-8.35;67.47;97473.00;5092138;28;20046;-69
2021/11/25 10:44:19;;;;;;;0.50;0.50;;;;;;;-8.39;67.64;97474.28;5092690;28;20165;-67
2021/11/25 10:46:50;;;;;;;0.85;0.85;;;;;;;-8.46;67.85;97476.75;5092453;28;20101;-71
2021/11/25 10:49:16;;;;;;;0.63;0.63;;;;;;;-8.55;68.20;97475.81;5092278;28;20525;-70
2021/11/25 10:51:45;;;;;;;0.80;0.80;;;;;;;-8.67;68.46;97479.63;5092133;28;20120;-69
2021/11/25 10:54:18;;;;;;;0.70;0.60;;;;;;;-8.78;68.58;97482.47;5091827;28;20502;-69
2021/11/25 10:56:53;;;;;;;4.85;1.33;;;;;;;-8.90;68.99;97477.34;5092105;28;20101;-69
2021/11/25 10:59:33;;;;;;;0.40;0.40;;;;;;;-8.99;69.30;97472.88;5089483;28;20031;-71
2021/11/25 11:01:59;;;;;;;0.40;0.40;;;;;;;-9.08;69.12;97479.91;5086275;28;20036;-71
2021/11/25 11:04:28;;;;;;;0.63;0.60;;;;;;;-9.22;69.59;97470.56;5082603;28;20032;-72
2021/11/25 11:06:55;;;;;;;0.35;0.35;;;;;;;-9.32;69.62;97475.03;5080929;28;20028;-72
2021/11/25 11:09:39;;;;;;;0.30;0.30;;;;;;;-9.40;69.57;97472.28;5083450;28;20403;-72
2021/11/25 11:12:23;;;;;;;0.70;0.70;;;;;;;-9.48;69.67;97469.47;5066139;28;20695;-73
2021/11/25 11:14:55;;;;;;;0.50;0.50;;;;;;;-9.56;69.80;97465.72;5083176;28;20130;-69
2021/11/25 11:17:33;;;;;;;1.17;0.60;;;;;;;-9.60;69.58;97464.31;5081780;28;20060;-71
2021/11/25 11:20:18;;;;;;;0.60;0.60;;;;;;;-9.64;70.00;97468.25;5071757;28;20024;-73
2021/11/25 11:22:59;;;;;;;12.20;0.88;;;;;;;-9.66;69.71;97464.03;5085905;28;20036;-73
2021/11/25 11:25:26;;;;;;;3.10;0.68;;;;;;;-9.71;69.94;97464.47;5085906;28;20043;-71
2021/11/25 11:27:55;;;;;;;0.38;0.38;;;;;;;-9.74;69.94;97462.09;5084911;28;20054;-72
2021/11/25 11:30:22;;;;;;;0.73;0.73;;;;;;;-9.75;70.03;97471.03;5061101;28;20135;-72
2021/11/25 11:32:48;;;;;;;0.65;0.65;;;;;;;-9.81;69.85;97468.94;5078615;28;20036;-73
2021/11/25 11:35:15;;;;;;;0.40;0.40;;;;;;;-9.80;69.80;97475.91;5081986;28;20052;-70
2021/11/25 11:37:42;;;;;;;0.40;0.40;;;;;;;-9.83;70.21;97474.41;5083305;28;20076;-70
2021/11/25 11:40:09;;;;;;;1.02;0.75;;;;;;;-9.82;69.94;97475.22;5080540;28;20047;-69
2021/11/25 11:42:36;;;;;;;0.52;0.52;;;;;;;-9.80;69.97;97474.13;5069556;28;20047;-72
2021/11/25 11:45:03;;;;;;;0.40;0.40;;;;;;;-9.74;69.99;97478.03;5082498;28;20040;-69
2021/11/25 11:47:30;;;;;;;0.60;0.60;;;;;;;-9.68;69.63;97485.44;5063224;28;20079;-69
2021/11/25 11:50:09;;;;;;;0.40;0.40;;;;;;;-9.64;69.50;97478.00;5085185;28;20467;-71
2021/11/25 11:52:52;;;;;;;0.43;0.43;;;;;;;-9.62;69.41;97479.56;5081795;28;20498;-70
2021/11/25 11:55:36;;;;;;;0.52;0.52;;;;;;;-9.56;69.20;97488.78;5065894;28;20045;-75
2021/11/25 11:58:24;;;;;;;0.57;0.57;;;;;;;-9.50;69.15;97496.19;5079631;28;20029;-69
2021/11/25 12:00:52;;;;;;;0.40;0.40;;;;;;;-9.53;69.13;97492.00;5081879;28;20056;-70
2021/11/25 12:03:31;;;;;;;0.45;0.45;;;;;;;-9.61;68.97;97488.34;5079661;28;20086;-70
2021/11/25 12:05:57;;;;;;;0.40;0.40;;;;;;;-9.76;69.19;97495.91;5082189;28;20047;-71
2021/11/25 12:08:28;;;;;;;0.30;0.30;;;;;;;-9.90;69.81;97492.69;5080457;28;20387;-69
2021/11/25 12:10:57;;;;;;;0.60;0.60;;;;;;;-10.01;69.78;97494.63;5080564;28;20094;-70
2021/11/25 12:13:25;;;;;;;0.40;0.40;;;;;;;-10.13;70.04;97488.63;5079906;28;20039;-71
2021/11/25 12:16:11;;;;;;;0.77;0.60;;;;;;;-10.19;70.24;97505.09;5081600;28;20051;-71
2021/11/25 12:18:37;;;;;;;0.50;0.50;;;;;;;-10.27;70.24;97493.34;5080622;28;20058;-70
2021/11/25 12:21:03;;;;;;;0.35;0.35;;;;;;;-10.34;70.33;97489.59;5091865;28;20039;-71
2021/11/25 12:23:35;;;;;;;0.30;0.30;;;;;;;-10.40;70.48;97492.78;5090103;28;20036;-70
2021/11/25 12:26:02;;;;;;;0.50;0.50;;;;;;;-10.44;70.55;97497.50;5090146;28;20102;-69
2021/11/25 12:28:30;;;;;;;0.40;0.40;;;;;;;-10.46;70.57;97488.03;5090174;28;20036;-70
2021/11/25 12:33:47;;;;;;;0.30;0.30;;;;;;;-10.50;70.49;97507.84;5087244;28;20080;-70
2021/11/25 12:36:31;;;;;;;0.40;0.40;;;;;;;-10.51;70.44;97511.44;5087398;28;20047;-70
2021/11/25 12:38:57;;;;;;;0.85;0.80;;;;;;;-10.55;70.53;97505.59;5087628;28;20031;-74
2021/11/25 12:41:23;;;;;;;0.55;0.55;;;;;;;-10.58;70.43;97505.88;5079717;28;20529;-69
2021/11/25 12:43:49;;;;;;;0.50;0.50;;;;;;;-10.62;70.30;97507.09;5073830;28;20115;-71
2021/11/25 12:46:17;;;;;;;0.57;0.57;;;;;;;-10.64;70.42;97506.41;5075045;28;20048;-68
2021/11/25 12:48:49;;;;;;;1.95;0.77;;;;;;;-10.64;70.57;97517.84;5075072;28;20045;-70
2021/11/25 12:51:18;;;;;;;0.43;0.43;;;;;;;-10.65;70.47;97513.50;5074892;28;20403;-68
2021/11/25 12:53:59;;;;;;;0.30;0.30;;;;;;;-10.67;70.50;97501.34;5074851;28;20072;-69
2021/11/25 12:56:39;;;;;;;0.60;0.60;;;;;;;-10.70;70.35;97502.47;5080210;28;20031;-66
2021/11/25 12:59:06;;;;;;;4.78;0.70;;;;;;;-10.66;70.33;97503.84;5095540;28;20054;-67
2021/11/25 13:01:51;;;;;;;1.10;0.85;;;;;;;-10.59;70.27;97497.03;5094228;28;20070;-70
2021/11/25 13:04:26;;;;;;;2.40;0.90;;;;;;;-10.53;69.73;97490.38;5095214;28;20044;-71
2021/11/25 13:06:57;;;;;;;0.40;0.40;;;;;;;-10.49;69.77;97491.78;5076978;28;20082;-69
2021/11/25 13:09:25;;;;;;;0.40;0.40;;;;;;;-10.53;69.66;97493.03;5095024;28;20441;-68
2021/11/25 13:11:52;;;;;;;0.82;0.82;;;;;;;-10.58;69.78;97485.47;5094715;28;20063;-70
2021/11/25 13:14:20;;;;;;;0.40;0.40;;;;;;;-10.55;69.65;97486.16;5094845;28;20141;-68
2021/11/25 13:16:48;;;;;;;0.40;0.40;;;;;;;-10.43;69.74;97482.44;5076542;28;20136;-70
2021/11/25 13:19:15;;;;;;;0.45;0.45;;;;;;;-10.29;69.42;97484.69;5077003;28;20059;-70
2021/11/25 13:21:47;;;;;;;0.55;0.55;;;;;;;-10.12;69.10;97485.00;5094738;28;20451;-71
2021/11/25 13:24:32;;;;;;;3.03;0.88;;;;;;;-10.00;68.89;97494.50;5079707;28;20048;-69
2021/11/25 13:27:06;;;;;;;0.50;0.50;;;;;;;-9.97;68.70;97480.94;5082914;28;20098;-70
2021/11/25 13:30:00;;;;;;;0.40;0.40;;;;;;;-9.93;68.42;97487.66;5089461;28;20036;-68
2021/11/25 13:32:33;;;;;;;1.58;1.00;;;;;;;-9.95;68.32;97497.59;5092072;28;20032;-68
2021/11/25 13:35:08;;;;;;;0.30;0.30;;;;;;;-9.94;68.64;97493.13;5091357;28;20168;-68
2021/11/25 13:37:37;;;;;;;0.95;0.95;;;;;;;-9.95;68.49;97494.94;5072480;28;20079;-68
2021/11/25 13:40:07;;;;;;;1.42;1.33;;;;;;;-9.94;68.64;97496.59;5072009;28;20042;-68
2021/11/25 13:42:39;;;;;;;0.52;0.50;;;;;;;-9.97;68.55;97496.88;5072006;28;20047;-69
2021/11/25 13:45:07;;;;;;;0.63;0.63;;;;;;;-9.98;68.84;97503.19;5059621;28;20506;-66
2021/11/25 13:47:35;;;;;;;0.30;0.30;;;;;;;-9.97;68.87;97509.31;5072300;28;20083;-69
2021/11/25 13:50:05;;;;;;;0.85;0.85;;;;;;;-9.94;68.99;97504.56;5080306;28;20045;-70
2021/11/25 13:52:39;;;;;;;3.55;1.33;;;;;;;-9.91;68.58;97508.78;5071069;28;20048;-70
2021/11/25 13:55:08;;;;;;;0.40;0.40;;;;;;;-9.92;68.78;97496.47;5064013;28;20441;-71
2021/11/25 13:57:37;;;;;;;0.40;0.40;;;;;;;-9.94;68.71;97501.09;5072523;28;20044;-69
2021/11/25 14:00:09;;;;;;;0.40;0.40;;;;;;;-10.01;68.72;97499.94;5073656;28;20044;-69
2021/11/25 14:02:36;;;;;;;0.30;0.30;;;;;;;-10.12;69.09;97503.56;5071148;28;20064;-69
2021/11/25 14:05:05;;;;;;;0.88;0.63;;;;;;;-10.17;69.46;97508.44;5072966;28;20036;-69
2021/11/25 14:07:31;;;;;;;0.40;0.40;;;;;;;-10.24;69.41;97514.31;5081328;28;20051;-68
2021/11/25 14:10:18;;;;;;;0.47;0.47;;;;;;;-10.22;69.51;97506.19;5075371;28;20043;-68
2021/11/25 14:12:51;;;;;;;0.50;0.50;;;;;;;-10.23;69.24;97499.19;5070849;28;20036;-67
2021/11/25 14:15:31;;;;;;;0.30;0.30;;;;;;;-10.32;69.45;97494.72;5086714;28;20502;-66
2021/11/25 14:18:00;;;;;;;1.05;0.82;;;;;;;-10.45;69.55;97497.63;5067291;28;20040;-66
2021/11/25 14:20:29;;;;;;;0.52;0.35;;;;;;;-10.58;69.96;97501.38;5072886;28;20032;-69
2021/11/25 14:22:58;;;;;;;1.25;0.65;;;;;;;-10.68;69.92;97503.16;5087445;28;20060;-67
2021/11/25 14:25:36;;;;;;;0.40;0.40;;;;;;;-10.74;70.16;97511.66;5086394;28;20043;-70
2021/11/25 14:31:17;;;;;;;0.40;0.40;;;;;;;-10.68;69.86;97510.28;5083761;28;20043;-68
2021/11/25 14:33:52;;;;;;;0.40;0.40;;;;;;;-10.63;69.56;97502.75;5073175;28;20498;-66
2021/11/25 14:36:35;;;;;;;0.75;0.75;;;;;;;-10.59;69.49;97493.56;5090885;28;20080;-73
2021/11/25 14:39:11;;;;;;;1.30;0.88;;;;;;;-10.60;69.46;97492.72;5091509;28;20040;-72
2021/11/25 14:41:37;;;;;;;0.82;0.82;;;;;;;-10.55;69.21;97492.31;5090806;28;20042;-70
2021/11/25 14:44:11;;;;;;;0.60;0.60;;;;;;;-10.47;68.98;97499.59;5091189;28;20138;-68
2021/11/25 14:46:40;;;;;;;1.98;1.33;;;;;;;-10.45;69.04;97506.47;5090426;28;20051;-68
2021/11/25 14:49:07;;;;;;;0.30;0.30;;;;;;;-10.44;68.80;97496.69;5082286;28;20079;-69
2021/11/25 14:51:36;;;;;;;0.40;0.40;;;;;;;-10.45;68.95;97495.00;5063305;28;20036;-71
2021/11/25 14:54:02;;;;;;;0.93;0.52;;;;;;;-10.33;68.79;97507.16;5084055;28;20040;-72
2021/11/25 14:56:37;;;;;;;0.30;0.30;;;;;;;-10.24;68.81;97508.16;5070970;28;20051;-72
2021/11/25 14:59:11;;;;;;;0.85;0.85;;;;;;;-10.13;68.66;97513.34;5091071;28;20035;-69
2021/11/25 15:01:41;;;;;;;0.40;0.40;;;;;;;-10.08;68.33;97512.94;5091075;28;20044;-69
2021/11/25 15:04:13;;;;;;;0.55;0.55;;;;;;;-10.00;68.14;97518.41;5091870;28;20044;-72
2021/11/25 15:06:42;;;;;;;0.95;0.88;;;;;;;-10.02;68.21;97515.06;5090830;28;20040;-70
2021/11/25 15:09:13;;;;;;;1.08;0.65;;;;;;;-10.15;68.57;97511.81;5091026;28;20410;-71
2021/11/25 15:11:39;;;;;;;0.65;0.60;;;;;;;-10.29;68.83;97515.69;5084962;28;20048;-70
2021/11/25 15:14:08;;;;;;;0.45;0.45;;;;;;;-10.42;68.91;97523.94;5090157;28;20043;-68
2021/11/25 15:16:36;;;;;;;0.57;0.57;;;;;;;-10.57;69.30;97519.00;5090263;28;20052;-72
2021/11/25 15:19:02;;;;;;;0.40;0.40;;;;;;;-10.66;69.53;97524.25;5090365;28;20043;-74
2021/11/25 15:21:29;;;;;;;0.82;0.82;;;;;;;-10.73;69.87;97525.75;5069534;28;20044;-74
2021/11/25 15:23:54;;;;;;;0.40;0.40;;;;;;;-10.83;70.08;97521.25;5084225;28;20165;-71
2021/11/25 15:26:20;;;;;;;0.45;0.45;;;;;;;-10.91;70.08;97518.41;5079218;28;20044;-71
2021/11/25 15:28:46;;;;;;;1.00;0.98;;;;;;;-10.94;70.18;97524.84;5084248;28;20628;-69
2021/11/25 15:31:12;;;;;;;6.68;1.05;;;;;;;-10.99;70.16;97529.66;5081886;28;20043;-69
2021/11/25 15:33:38;;;;;;;5.53;2.00;;;;;;;-11.01;70.33;97531.63;5082529;28;20059;-67
2021/11/25 15:36:08;;;;;;;0.60;0.60;;;;;;;-11.02;70.32;97534.41;5084872;28;20040;-71
2021/11/25 15:38:37;;;;;;;0.45;0.45;;;;;;;-11.05;70.33;97532.84;5082608;28;20056;-70
2021/11/25 15:41:05;;;;;;;0.40;0.40;;;;;;;-11.07;70.61;97526.81;5079685;28;20417;-68
2021/11/25 15:43:31;;;;;;;0.30;0.30;;;;;;;-11.09;70.26;97528.78;5079936;28;20405;-69
2021/11/25 15:45:58;;;;;;;2.15;0.68;;;;;;;-11.15;70.56;97532.78;5079123;28;20487;-70
2021/11/25 15:48:25;;;;;;;0.50;0.50;;;;;;;-11.16;70.50;97528.47;5062250;28;20094;-71
2021/11/25 15:51:00;;;;;;;1.50;1.00;;;;;;;-11.18;70.51;97527.75;5080950;28;20048;-74
2021/11/25 15:53:27;;;;;;;0.40;0.40;;;;;;;-11.19;70.65;97523.41;5082627;28;20039;-70
2021/11/25 15:55:54;;;;;;;0.75;0.75;;;;;;;-11.19;70.42;97525.22;5084785;28;20092;-72
2021/11/25 15:58:21;;;;;;;1.77;0.93;;;;;;;-11.20;70.50;97528.84;5068714;28;20036;-70
2021/11/25 16:00:49;;;;;;;1.13;1.05;;;;;;;-11.21;70.37;97543.91;5081796;28;20123;-71
2021/11/25 16:03:16;;;;;;;0.80;0.80;;;;;;;-11.22;70.40;97544.03;5071018;28;20067;-69
2021/11/25 16:05:44;;;;;;;0.40;0.40;;;;;;;-11.28;70.45;97542.75;5077167;28;20044;-69
2021/11/25 16:08:10;;;;;;;0.47;0.47;;;;;;;-11.36;70.34;97548.69;5087232;28;20533;-70
2021/11/25 16:10:37;;;;;;;0.40;0.40;;;;;;;-11.43;70.52;97547.50;5089081;28;20064;-69
2021/11/25 16:13:08;;;;;;;0.50;0.50;;;;;;;-11.45;70.66;97552.13;5089982;28;20663;-69
2021/11/25 16:15:46;;;;;;;0.50;0.50;;;;;;;-11.50;70.60;97551.63;5085723;28;20048;-74
2021/11/25 16:18:13;;;;;;;0.98;0.70;;;;;;;-11.54;70.50;97547.56;5088108;28;20063;-73
2021/11/25 16:20:39;;;;;;;0.45;0.45;;;;;;;-11.62;70.72;97538.44;5094389;28;20111;-71
2021/11/25 16:23:07;;;;;;;0.30;0.30;;;;;;;-11.68;70.76;97552.19;5095413;28;20585;-71
2021/11/25 16:25:34;;;;;;;0.93;0.93;;;;;;;-11.69;70.72;97547.88;5095961;28;20036;-73
2021/11/25 16:28:01;;;;;;;1.30;1.20;;;;;;;-11.60;70.68;97553.38;5096366;28;20036;-69
2021/11/25 16:30:43;;;;;;;0.50;0.50;;;;;;;-11.53;70.38;97559.84;5095769;28;20055;-69
2021/11/25 16:33:11;;;;;;;2.38;0.77;;;;;;;-11.45;70.26;97560.88;5083357;28;20469;-72
2021/11/25 16:35:37;;;;;;;0.40;0.40;;;;;;;-11.39;69.87;97570.16;5087387;28;20040;-73
2021/11/25 16:38:03;;;;;;;0.80;0.75;;;;;;;-11.33;69.81;97571.44;5093759;28;20418;-73
2021/11/25 16:40:29;;;;;;;2.28;0.60;;;;;;;-11.29;69.64;97579.00;5076034;28;20043;-71
2021/11/25 16:42:55;;;;;;;0.57;0.57;;;;;;;-11.29;69.41;97573.72;5094721;28;20040;-72
2021/11/25 16:45:21;;;;;;;4.57;1.15;;;;;;;-11.32;69.70;97579.25;5093626;28;20094;-71
2021/11/25 16:50:31;;;;;;;0.85;0.70;;;;;;;-11.40;69.46;97567.63;5087828;28;20050;-71
2021/11/25 16:52:57;;;;;;;0.43;0.43;;;;;;;-11.39;69.58;97569.28;5084275;28;20036;-72
2021/11/25 16:55:23;;;;;;;4.70;1.25;;;;;;;-11.39;69.59;97570.16;5082826;28;20230;-76
2021/11/25 16:57:49;;;;;;;1.55;1.15;;;;;;;-11.39;69.59;97571.94;5081072;28;20052;-74
2021/11/25 17:00:15;;;;;;;0.50;0.50;;;;;;;-11.42;69.63;97564.25;5063616;28;20114;-75
2021/11/25 17:02:41;;;;;;;2.30;0.80;;;;;;;-11.39;69.64;97569.28;5083548;28;20487;-74
2021/11/25 17:05:08;;;;;;;2.00;0.60;;;;;;;-11.43;69.64;97570.53;5084909;28;20044;-76
2021/11/25 17:07:35;;;;;;;0.60;0.60;;;;;;;-11.46;69.73;97574.25;5083369;28;20055;-73
2021/11/25 17:10:01;;;;;;;0.57;0.57;;;;;;;-11.45;69.60;97590.03;5067942;28;20630;-71
2021/11/25 17:12:27;;;;;;;0.50;0.50;;;;;;;-11.41;69.89;97577.34;5082701;28;20118;-73
2021/11/25 17:14:53;;;;;;;0.40;0.40;;;;;;;-11.36;69.52;97575.19;5067207;28;20104;-71
2021/11/25 17:17:18;;;;;;;0.40;0.40;;;;;;;-11.36;69.52;97572.53;5084648;28;20059;-75
2021/11/25 17:19:44;;;;;;;0.50;0.50;;;;;;;-11.33;69.62;97574.09;5086270;28;20051;-73
2021/11/25 17:22:10;;;;;;;0.40;0.40;;;;;;;-11.27;69.39;97585.00;5082982;28;20113;-77
2021/11/25 17:24:37;;;;;;;0.32;0.32;;;;;;;-11.19;69.43;97592.31;5082623;28;20517;-75
2021/11/25 17:27:03;;;;;;;0.35;0.35;;;;;;;-11.15;69.48;97584.97;5087074;28;20042;-73
2021/11/25 17:29:28;;;;;;;0.63;0.63;;;;;;;-11.11;69.09;97594.34;5095493;28;20139;-75
2021/11/25 17:31:54;;;;;;;0.30;0.30;;;;;;;-11.05;69.12;97591.16;5094178;28;20115;-75
2021/11/25 17:34:20;;;;;;;0.40;0.40;;;;;;;-10.98;68.88;97608.25;5094764;28;20122;-74
2021/11/25 17:36:46;;;;;;;0.40;0.40;;;;;;;-10.92;69.01;97596.28;5093993;28;20039;-72
2021/11/25 17:39:12;;;;;;;0.30;0.30;;;;;;;-10.88;69.00;97599.50;5094405;28;20046;-74
2021/11/25 17:41:38;;;;;;;0.50;0.50;;;;;;;-10.89;68.79;97603.13;5093915;28;20036;-72
2021/11/25 17:44:04;;;;;;;0.35;0.35;;;;;;;-10.88;69.03;97596.84;5093923;28;20502;-73
2021/11/25 17:46:29;;;;;;;0.35;0.35;;;;;;;-10.89;69.03;97593.38;5075047;28;20495;-70
2021/11/25 17:48:55;;;;;;;1.80;0.82;;;;;;;-10.81;69.12;97603.31;5093701;28;20047;-69
2021/11/25 17:51:22;;;;;;;0.55;0.55;;;;;;;-10.75;69.02;97600.13;5075798;28;20046;-72
2021/11/25 17:53:47;;;;;;;1.10;1.10;;;;;;;-10.70;68.86;97595.31;5093275;28;20040;-69
2021/11/25 17:56:14;;;;;;;0.40;0.40;;;;;;;-10.66;68.77;97593.22;5075204;28;20548;-72
2021/11/25 17:58:40;;;;;;;0.50;0.50;;;;;;;-10.62;68.95;97591.97;5093226;28;20040;-75
2021/11/25 18:01:06;;;;;;;0.40;0.40;;;;;;;-10.58;68.77;97583.63;5093312;28;20135;-74
2021/11/25 18:03:32;;;;;;;0.73;0.73;;;;;;;-10.54;68.77;97586.00;5074935;28;20040;-74
2021/11/25 18:05:59;;;;;;;0.50;0.50;;;;;;;-10.50;68.78;97588.25;5094708;28;20040;-74
2021/11/25 18:08:25;;;;;;;0.55;0.55;;;;;;;-10.46;69.03;97591.50;5094537;28;20413;-75
2021/11/25 18:10:51;;;;;;;11.63;1.15;;;;;;;-10.42;68.92;97590.28;5076266;28;20040;-76
2021/11/25 18:13:18;;;;;;;0.40;0.40;;;;;;;-10.40;68.66;97591.78;5094110;28;20039;-69
2021/11/25 18:15:44;;;;;;;0.73;0.73;;;;;;;-10.36;68.88;97588.88;5093681;28;20514;-71
2021/11/25 18:18:10;;;;;;;0.40;0.40;;;;;;;-10.38;68.62;97591.66;5093784;28;20044;-71
2021/11/25 18:20:37;;;;;;;0.30;0.30;;;;;;;-10.36;68.81;97588.88;5093975;28;20070;-76
2021/11/25 18:23:03;;;;;;;0.50;0.50;;;;;;;-10.33;69.07;97589.44;5094579;28;20058;-72
2021/11/25 18:25:29;;;;;;;0.40;0.40;;;;;;;-10.33;69.02;97600.06;5094915;28;20046;-70
2021/11/25 18:27:55;;;;;;;0.47;0.47;;;;;;;-10.37;69.20;97590.69;5094248;28;20118;-77
2021/11/25 18:30:21;;;;;;;0.40;0.40;;;;;;;-10.33;68.83;97609.84;5093422;28;20038;-71
2021/11/25 18:32:49;;;;;;;0.60;0.60;;;;;;;-10.32;69.05;97598.22;5093024;28;20063;-73
2021/11/25 18:35:15;;;;;;;0.30;0.30;;;;;;;-10.31;68.67;97603.41;5093783;28;20044;-73
2021/11/25 18:37:41;;;;;;;0.30;0.30;;;;;;;-10.26;68.84;97608.31;5093661;28;20047;-71
2021/11/25 18:40:11;;;;;;;0.50;0.50;;;;;;;-10.24;68.91;97609.84;5093237;28;20044;-71
2021/11/25 18:42:38;;;;;;;0.70;0.70;;;;;;;-10.24;68.84;97604.56;5092829;28;20097;-70
2021/11/25 18:45:07;;;;;;;0.38;0.38;;;;;;;-10.24;68.64;97612.50;5093569;28;20048;-69
2021/11/25 18:47:33;;;;;;;1.30;0.80;;;;;;;-10.21;68.74;97609.59;5093181;28;20468;-70
2021/11/25 18:50:05;;;;;;;0.80;0.40;;;;;;;-10.17;68.63;97606.66;5093547;28;20040;-69
2021/11/25 18:52:30;;;;;;;0.60;0.43;;;;;;;-10.17;68.61;97609.31;5092988;28;20093;-71
2021/11/25 18:54:56;;;;;;;0.60;0.60;;;;;;;-10.21;68.84;97604.28;5093130;28;20476;-71
2021/11/25 18:57:22;;;;;;;0.63;0.63;;;;;;;-10.26;68.63;97603.84;5095069;28;20090;-72
2021/11/25 18:59:48;;;;;;;1.40;1.08;;;;;;;-10.27;69.01;97599.50;5093993;28;20071;-68
2021/11/25 19:02:14;;;;;;;0.40;0.40;;;;;;;-10.31;69.19;97602.56;5092701;28;20084;-68
2021/11/25 19:04:40;;;;;;;0.30;0.30;;;;;;;-10.34;68.93;97597.56;5093681;28;20127;-69
2021/11/25 19:07:07;;;;;;;0.30;0.30;;;;;;;-10.42;69.05;97604.38;5092908;28;20036;-71
2021/11/25 19:09:33;;;;;;;0.60;0.60;;;;;;;-10.51;69.47;97604.31;5092073;28;20044;-71
2021/11/25 19:11:59;;;;;;;1.20;0.95;;;;;;;-10.62;69.60;97603.41;5093303;28;20040;-71
2021/11/25 19:14:26;;;;;;;0.85;0.75;;;;;;;-10.68;69.85;97611.91;5093251;28;20064;-70
2021/11/25 19:16:52;;;;;;;0.38;0.38;;;;;;;-10.73;70.00;97613.28;5093537;28;20080;-69
2021/11/25 19:19:19;;;;;;;0.40;0.40;;;;;;;-10.81;69.99;97613.94;5092819;28;20498;-67
2021/11/25 19:21:45;;;;;;;11.30;1.17;;;;;;;-10.89;70.06;97619.03;5092827;28;20043;-71
2021/11/25 19:24:11;;;;;;;0.30;0.30;;;;;;;-10.98;70.36;97618.84;5092983;28;20059;-68
2021/11/25 19:26:37;;;;;;;0.80;0.60;;;;;;;-11.06;70.38;97623.09;5093390;28;20117;-70
2021/11/25 19:29:03;;;;;;;1.88;0.75;;;;;;;-11.13;70.27;97615.69;5093937;28;20040;-69
2021/11/25 19:31:32;;;;;;;0.63;0.63;;;;;;;-11.16;70.25;97615.06;5092935;28;20382;-70
2021/11/25 19:33:57;;;;;;;3.10;1.33;;;;;;;-11.21;70.17;97631.38;5093223;28;20044;-70
2021/11/25 19:36:23;;;;;;;0.50;0.50;;;;;;;-11.27;70.47;97627.41;5092939;28;20044;-73
2021/11/25 19:38:49;;;;;;;1.48;0.93;;;;;;;-11.31;70.29;97625.97;5092347;28;20110;-70
2021/11/25 19:41:15;;;;;;;1.83;0.93;;;;;;;-11.34;70.23;97628.03;5092346;28;20043;-73
2021/11/25 19:43:41;;;;;;;0.45;0.45;;;;;;;-11.35;70.21;97629.88;5093396;28;20468;-73
2021/11/25 19:46:06;;;;;;;0.50;0.50;;;;;;;-11.38;69.95;97632.78;5093326;28;20097;-72
2021/11/25 19:48:33;;;;;;;0.52;0.52;;;;;;;-11.42;70.21;97630.47;5093283;28;20467;-70
2021/11/25 19:51:00;;;;;;;5.78;0.60;;;;;;;-11.47;70.22;97628.22;5092767;28;20050;-70
2021/11/25 19:53:26;;;;;;;3.40;1.00;;;;;;;-11.51;70.32;97624.13;5092370;28;20101;-71
2021/11/25 19:55:53;;;;;;;0.50;0.50;;;;;;;-11.58;70.25;97633.56;5057492;28;20055;-69
2021/11/25 19:58:19;;;;;;;0.85;0.65;;;;;;;-11.64;70.49;97638.38;5074919;28;20127;-68
2021/11/25 20:00:46;;;;;;;0.68;0.68;;;;;;;-11.67;70.31;97645.75;5093305;28;20528;-71
2021/11/25 20:03:11;;;;;;;0.30;0.30;;;;;;;-11.70;70.21;97662.72;5091266;28;20071;-67
2021/11/25 20:05:37;;;;;;;1.27;1.05;;;;;;;-11.77;70.49;97671.28;5091273;28;20070;-70
2021/11/25 20:08:04;;;;;;;0.40;0.40;;;;;;;-11.82;70.46;97677.78;5092086;28;20039;-70
2021/11/25 20:10:30;;;;;;;0.40;0.40;;;;;;;-11.77;70.55;97677.41;5073831;28;20044;-70
2021/11/25 20:12:59;;;;;;;1.17;0.73;;;;;;;-11.72;70.64;97690.25;5092179;28;20088;-70
2021/11/25 20:15:29;;;;;;;2.30;0.73;;;;;;;-11.66;70.41;97701.22;5091856;28;20048;-69
2021/11/25 20:17:56;;;;;;;0.40;0.40;;;;;;;-11.59;70.52;97698.91;5073809;28;20386;-69
2021/11/25 20:20:29;;;;;;;0.77;0.77;;;;;;;-11.50;69.93;97702.63;5092260;28;20169;-72
2021/11/25 20:22:58;;;;;;;0.75;0.60;;;;;;;-11.48;69.88;97706.00;5091896;28;20044;-69
2021/11/25 20:25:24;;;;;;;1.00;0.65;;;;;;;-11.44;70.25;97704.78;5091908;28;20043;-71
2021/11/25 20:27:51;;;;;;;0.40;0.40;;;;;;;-11.35;69.97;97708.50;5092038;28;20162;-70
2021/11/25 20:30:18;;;;;;;0.60;0.60;;;;;;;-11.31;69.72;97708.13;5093257;28;20048;-69
2021/11/25 20:32:46;;;;;;;0.88;0.82;;;;;;;-11.27;69.62;97712.19;5092761;28;20044;-69
2021/11/25 20:35:13;;;;;;;0.60;0.60;;;;;;;-11.24;69.61;97712.94;5091962;28;20399;-70
2021/11/25 20:37:40;;;;;;;0.30;0.30;;;;;;;-11.21;69.69;97718.00;5091898;28;20040;-68
2021/11/25 20:40:11;;;;;;;1.17;0.65;;;;;;;-11.13;69.41;97718.19;5092043;28;20040;-68
2021/11/25 20:42:37;;;;;;;0.47;0.47;;;;;;;-11.07;69.50;97716.84;5091831;28;20051;-69
2021/11/25 20:45:04;;;;;;;0.30;0.30;;;;;;;-11.05;69.42;97723.72;5091810;28;20048;-69
2021/11/25 20:47:30;;;;;;;0.40;0.40;;;;;;;-10.95;69.37;97732.59;5091930;28;20046;-69
2021/11/25 20:49:56;;;;;;;0.55;0.50;;;;;;;-10.88;68.95;97721.47;5091636;28;20442;-68
2021/11/25 20:52:22;;;;;;;2.40;0.73;;;;;;;-10.84;69.10;97723.75;5091403;28;20044;-70
2021/11/25 20:54:48;;;;;;;0.40;0.40;;;;;;;-10.83;68.95;97716.66;5091861;28;20044;-71
2021/11/25 20:57:15;;;;;;;0.40;0.40;;;;;;;-10.81;68.92;97726.13;5091880;28;20052;-69
2021/11/25 20:59:40;;;;;;;0.43;0.43;;;;;;;-10.76;68.90;97716.00;5092601;28;20044;-71
2021/11/25 21:02:06;;;;;;;0.65;0.65;;;;;;;-10.76;69.00;97723.09;5092660;28;20113;-70
2021/11/25 21:04:32;;;;;;;0.47;0.47;;;;;;;-10.75;69.20;97723.00;5093126;28;20555;-70
2021/11/25 21:06:58;;;;;;;0.60;0.45;;;;;;;-10.69;68.97;97720.78;5077352;28;20039;-70
2021/11/25 21:09:24;;;;;;;0.60;0.60;;;;;;;-10.67;69.04;97727.66;5095318;28;20036;-70
2021/11/25 21:11:50;;;;;;;0.63;0.63;;;;;;;-10.67;69.04;97735.63;5094830;28;20047;-71
2021/11/25 21:14:16;;;;;;;0.40;0.40;;;;;;;-10.67;69.06;97735.63;5095387;28;20093;-71
2021/11/25 21:16:43;;;;;;;0.65;0.55;;;;;;;-10.70;69.02;97725.25;5094976;28;20139;-71
2021/11/25 21:19:09;;;;;;;0.80;0.80;;;;;;;-10.71;69.23;97734.19;5095038;28;20410;-72
2021/11/25 21:21:35;;;;;;;0.40;0.40;;;;;;;-10.71;69.25;97739.50;5095090;28;20024;-70
2021/11/25 21:24:01;;;;;;;0.47;0.47;;;;;;;-10.68;69.35;97743.69;5094945;28;20131;-67
2021/11/25 21:26:27;;;;;;;2.33;0.63;;;;;;;-10.68;69.44;97752.50;5093793;28;20080;-70
2021/11/25 21:29:02;;;;;;;0.60;0.60;;;;;;;-10.64;68.94;97756.59;5095623;28;20073;-68
2021/11/25 21:31:28;;;;;;;0.70;0.70;;;;;;;-10.62;69.12;97757.28;5095030;28;20051;-71
2021/11/25 21:33:54;;;;;;;0.30;0.30;;;;;;;-10.59;69.30;97758.84;5095350;28;20036;-71
2021/11/25 21:36:19;;;;;;;0.50;0.50;;;;;;;-10.55;68.99;97759.41;5094958;28;20040;-70
2021/11/25 21:38:45;;;;;;;0.60;0.60;;;;;;;-10.54;68.87;97766.41;5094780;28;20048;-69
2021/11/25 21:41:11;;;;;;;0.40;0.40;;;;;;;-10.54;69.03;97761.09;5094716;28;20054;-70
2021/11/25 21:43:37;;;;;;;1.48;0.73;;;;;;;-10.51;69.01;97768.81;5094571;28;20073;-70
2021/11/25 21:46:03;;;;;;;0.50;0.50;;;;;;;-10.46;69.21;97780.72;5094556;28;20040;-69
2021/11/25 21:48:29;;;;;;;0.82;0.82;;;;;;;-10.46;69.01;97782.56;5094584;28;20067;-69
2021/11/25 21:50:55;;;;;;;0.47;0.47;;;;;;;-10.45;69.03;97781.56;5094660;28;20040;-70
2021/11/25 21:53:21;;;;;;;0.40;0.40;;;;;;;-10.42;68.90;97782.16;5094569;28;20490;-69
2021/11/25 21:55:47;;;;;;;3.70;0.65;;;;;;;-10.38;68.85;97793.34;5094506;28;20395;-69
2021/11/25 21:58:13;;;;;;;0.77;0.77;;;;;;;-10.36;68.86;97785.25;5094550;28;20040;-68
2021/11/25 22:00:39;;;;;;;0.50;0.40;;;;;;;-10.35;68.86;97787.78;5094339;28;20036;-71
2021/11/25 22:03:05;;;;;;;0.47;0.47;;;;;;;-10.43;69.04;97779.63;5094883;28;20391;-69
2021/11/25 22:05:31;;;;;;;0.60;0.60;;;;;;;-10.37;69.34;97799.53;5094958;28;20040;-71